sensor_id;sensor_type;location;lat;lon;timestamp;P1;durP1;ratioP1;P2;durP2;ratioP2
74551;SDS011;63025;55.472;38.432;2023-05-07T00:00:03;32.42;;;13.35;;
74551;SDS011;63025;55.472;38.432;2023-05-07T00:02:35;33.90;;;14.20;;
74551;SDS011;63025;55.472;38.432;2023-05-07T00:05:03;30.45;;;13.13;;
74551;SDS011;63025;55.472;38.432;2023-05-07T00:07:31;26.67;;;13.55;;
74551;SDS011;63025;55.472;38.432;2023-05-07T00:09:57;22.77;;;11.02;;
74551;SDS011;63025;55.472;38.432;2023-05-07T00:12:38;31.35;;;12.73;;
74551;SDS011;63025;55.472;38.432;2023-05-07T00:15:04;29.80;;;13.48;;
74551;SDS011;63025;55.472;38.432;2023-05-07T00:17:33;30.17;;;14.05;;
74551;SDS011;63025;55.472;38.432;2023-05-07T00:19:59;34.35;;;14.32;;
74551;SDS011;63025;55.472;38.432;2023-05-07T00:22:25;32.08;;;12.93;;
74551;SDS011;63025;55.472;38.432;2023-05-07T00:24:51;30.88;;;14.02;;
74551;SDS011;63025;55.472;38.432;2023-05-07T00:27:17;27.48;;;13.38;;
74551;SDS011;63025;55.472;38.432;2023-05-07T00:29:43;30.23;;;13.27;;
74551;SDS011;63025;55.472;38.432;2023-05-07T00:32:09;33.55;;;15.05;;
74551;SDS011;63025;55.472;38.432;2023-05-07T00:34:34;29.80;;;13.27;;
74551;SDS011;63025;55.472;38.432;2023-05-07T00:37:01;33.42;;;13.23;;
74551;SDS011;63025;55.472;38.432;2023-05-07T00:39:27;26.83;;;12.57;;
74551;SDS011;63025;55.472;38.432;2023-05-07T00:41:52;21.17;;;10.68;;
74551;SDS011;63025;55.472;38.432;2023-05-07T00:44:18;26.88;;;12.27;;
74551;SDS011;63025;55.472;38.432;2023-05-07T00:46:44;29.35;;;11.43;;
74551;SDS011;63025;55.472;38.432;2023-05-07T00:49:10;22.90;;;11.00;;
74551;SDS011;63025;55.472;38.432;2023-05-07T00:51:36;27.83;;;11.05;;
74551;SDS011;63025;55.472;38.432;2023-05-07T00:54:02;27.17;;;11.77;;
74551;SDS011;63025;55.472;38.432;2023-05-07T00:56:28;29.98;;;13.90;;
74551;SDS011;63025;55.472;38.432;2023-05-07T00:58:54;29.73;;;12.50;;
74551;SDS011;63025;55.472;38.432;2023-05-07T01:01:20;34.05;;;12.85;;
74551;SDS011;63025;55.472;38.432;2023-05-07T01:03:47;22.95;;;11.52;;
74551;SDS011;63025;55.472;38.432;2023-05-07T01:06:12;24.45;;;11.55;;
74551;SDS011;63025;55.472;38.432;2023-05-07T01:08:42;27.38;;;11.93;;
74551;SDS011;63025;55.472;38.432;2023-05-07T01:11:08;27.80;;;11.65;;
74551;SDS011;63025;55.472;38.432;2023-05-07T01:13:35;21.08;;;10.23;;
74551;SDS011;63025;55.472;38.432;2023-05-07T01:16:03;28.33;;;11.23;;
74551;SDS011;63025;55.472;38.432;2023-05-07T01:18:29;22.67;;;10.48;;
74551;SDS011;63025;55.472;38.432;2023-05-07T01:20:56;20.63;;;9.80;;
74551;SDS011;63025;55.472;38.432;2023-05-07T01:23:25;20.27;;;9.80;;
74551;SDS011;63025;55.472;38.432;2023-05-07T01:25:53;22.35;;;10.27;;
74551;SDS011;63025;55.472;38.432;2023-05-07T01:28:22;22.23;;;9.98;;
74551;SDS011;63025;55.472;38.432;2023-05-07T01:30:49;22.00;;;10.98;;
74551;SDS011;63025;55.472;38.432;2023-05-07T01:33:19;20.10;;;10.10;;
74551;SDS011;63025;55.472;38.432;2023-05-07T01:35:51;20.95;;;9.70;;
74551;SDS011;63025;55.472;38.432;2023-05-07T01:38:18;23.48;;;10.45;;
74551;SDS011;63025;55.472;38.432;2023-05-07T01:40:46;21.42;;;10.70;;
74551;SDS011;63025;55.472;38.432;2023-05-07T01:43:13;23.42;;;10.55;;
74551;SDS011;63025;55.472;38.432;2023-05-07T01:45:39;28.00;;;11.55;;
74551;SDS011;63025;55.472;38.432;2023-05-07T01:48:06;27.73;;;11.25;;
74551;SDS011;63025;55.472;38.432;2023-05-07T01:50:33;22.98;;;11.10;;
74551;SDS011;63025;55.472;38.432;2023-05-07T01:53:00;21.48;;;10.43;;
74551;SDS011;63025;55.472;38.432;2023-05-07T01:55:27;23.17;;;10.80;;
74551;SDS011;63025;55.472;38.432;2023-05-07T01:57:53;23.38;;;11.50;;
74551;SDS011;63025;55.472;38.432;2023-05-07T02:00:19;22.55;;;11.07;;
74551;SDS011;63025;55.472;38.432;2023-05-07T02:02:45;26.77;;;13.23;;
74551;SDS011;63025;55.472;38.432;2023-05-07T02:05:24;23.33;;;11.27;;
74551;SDS011;63025;55.472;38.432;2023-05-07T02:10:24;27.60;;;11.98;;
74551;SDS011;63025;55.472;38.432;2023-05-07T02:12:50;26.95;;;11.45;;
74551;SDS011;63025;55.472;38.432;2023-05-07T02:15:17;22.25;;;11.65;;
74551;SDS011;63025;55.472;38.432;2023-05-07T02:17:59;29.05;;;12.23;;
74551;SDS011;63025;55.472;38.432;2023-05-07T02:20:28;22.60;;;12.40;;
74551;SDS011;63025;55.472;38.432;2023-05-07T02:22:53;27.88;;;12.65;;
74551;SDS011;63025;55.472;38.432;2023-05-07T02:25:19;25.50;;;12.05;;
74551;SDS011;63025;55.472;38.432;2023-05-07T02:27:46;26.15;;;12.75;;
74551;SDS011;63025;55.472;38.432;2023-05-07T02:30:13;20.90;;;11.10;;
74551;SDS011;63025;55.472;38.432;2023-05-07T02:32:39;22.05;;;11.38;;
74551;SDS011;63025;55.472;38.432;2023-05-07T02:35:05;21.27;;;11.20;;
74551;SDS011;63025;55.472;38.432;2023-05-07T02:37:32;23.33;;;12.00;;
74551;SDS011;63025;55.472;38.432;2023-05-07T02:39:58;26.50;;;12.52;;
74551;SDS011;63025;55.472;38.432;2023-05-07T02:42:24;27.45;;;12.10;;
74551;SDS011;63025;55.472;38.432;2023-05-07T02:44:49;27.05;;;12.38;;
74551;SDS011;63025;55.472;38.432;2023-05-07T02:47:15;19.35;;;10.32;;
74551;SDS011;63025;55.472;38.432;2023-05-07T02:49:43;15.93;;;8.93;;
74551;SDS011;63025;55.472;38.432;2023-05-07T02:52:09;17.58;;;8.90;;
74551;SDS011;63025;55.472;38.432;2023-05-07T02:54:34;19.73;;;9.18;;
74551;SDS011;63025;55.472;38.432;2023-05-07T02:57:00;19.20;;;10.07;;
74551;SDS011;63025;55.472;38.432;2023-05-07T02:59:27;20.23;;;9.35;;
74551;SDS011;63025;55.472;38.432;2023-05-07T03:01:54;19.70;;;9.93;;
74551;SDS011;63025;55.472;38.432;2023-05-07T03:04:20;24.10;;;10.98;;
74551;SDS011;63025;55.472;38.432;2023-05-07T03:06:46;17.70;;;10.02;;
74551;SDS011;63025;55.472;38.432;2023-05-07T03:09:12;15.85;;;8.70;;
74551;SDS011;63025;55.472;38.432;2023-05-07T03:11:38;18.67;;;8.88;;
74551;SDS011;63025;55.472;38.432;2023-05-07T03:14:04;15.85;;;8.80;;
74551;SDS011;63025;55.472;38.432;2023-05-07T03:16:30;17.10;;;8.73;;
74551;SDS011;63025;55.472;38.432;2023-05-07T03:18:56;15.73;;;8.68;;
74551;SDS011;63025;55.472;38.432;2023-05-07T03:21:22;15.30;;;8.93;;
74551;SDS011;63025;55.472;38.432;2023-05-07T03:23:48;15.13;;;8.45;;
74551;SDS011;63025;55.472;38.432;2023-05-07T03:26:14;19.27;;;8.85;;
74551;SDS011;63025;55.472;38.432;2023-05-07T03:28:42;16.83;;;8.27;;
74551;SDS011;63025;55.472;38.432;2023-05-07T03:31:11;16.00;;;7.78;;
74551;SDS011;63025;55.472;38.432;2023-05-07T03:33:39;11.88;;;7.10;;
74551;SDS011;63025;55.472;38.432;2023-05-07T03:36:18;14.10;;;7.95;;
74551;SDS011;63025;55.472;38.432;2023-05-07T03:38:45;12.10;;;6.90;;
74551;SDS011;63025;55.472;38.432;2023-05-07T03:41:11;14.30;;;7.00;;
74551;SDS011;63025;55.472;38.432;2023-05-07T03:43:37;11.40;;;6.45;;
74551;SDS011;63025;55.472;38.432;2023-05-07T03:46:07;13.10;;;6.25;;
74551;SDS011;63025;55.472;38.432;2023-05-07T03:48:34;12.45;;;6.70;;
74551;SDS011;63025;55.472;38.432;2023-05-07T03:51:00;9.90;;;6.05;;
74551;SDS011;63025;55.472;38.432;2023-05-07T03:53:30;11.40;;;5.00;;
74551;SDS011;63025;55.472;38.432;2023-05-07T03:55:56;11.00;;;5.40;;
74551;SDS011;63025;55.472;38.432;2023-05-07T03:58:22;10.05;;;4.68;;
74551;SDS011;63025;55.472;38.432;2023-05-07T04:00:48;9.35;;;5.35;;
74551;SDS011;63025;55.472;38.432;2023-05-07T04:05:47;10.15;;;5.25;;
74551;SDS011;63025;55.472;38.432;2023-05-07T04:08:13;10.90;;;5.72;;
74551;SDS011;63025;55.472;38.432;2023-05-07T04:10:42;8.15;;;4.78;;
74551;SDS011;63025;55.472;38.432;2023-05-07T04:13:09;10.00;;;5.15;;
74551;SDS011;63025;55.472;38.432;2023-05-07T04:15:36;6.90;;;3.92;;
74551;SDS011;63025;55.472;38.432;2023-05-07T04:18:05;5.03;;;2.78;;
74551;SDS011;63025;55.472;38.432;2023-05-07T04:20:33;7.22;;;2.67;;
74551;SDS011;63025;55.472;38.432;2023-05-07T04:23:02;5.75;;;2.70;;
74551;SDS011;63025;55.472;38.432;2023-05-07T04:25:29;4.95;;;2.47;;
74551;SDS011;63025;55.472;38.432;2023-05-07T04:28:02;6.32;;;2.78;;
74551;SDS011;63025;55.472;38.432;2023-05-07T04:30:29;5.30;;;2.35;;
74551;SDS011;63025;55.472;38.432;2023-05-07T04:32:54;5.45;;;2.40;;
74551;SDS011;63025;55.472;38.432;2023-05-07T04:35:22;4.38;;;2.05;;
74551;SDS011;63025;55.472;38.432;2023-05-07T04:37:48;5.32;;;2.67;;
74551;SDS011;63025;55.472;38.432;2023-05-07T04:40:14;5.65;;;2.85;;
74551;SDS011;63025;55.472;38.432;2023-05-07T04:42:42;5.70;;;2.60;;
74551;SDS011;63025;55.472;38.432;2023-05-07T04:45:08;3.90;;;2.17;;
74551;SDS011;63025;55.472;38.432;2023-05-07T04:47:36;5.68;;;2.83;;
74551;SDS011;63025;55.472;38.432;2023-05-07T04:50:02;7.40;;;2.30;;
74551;SDS011;63025;55.472;38.432;2023-05-07T04:52:30;3.90;;;2.05;;
74551;SDS011;63025;55.472;38.432;2023-05-07T04:54:58;5.43;;;2.50;;
74551;SDS011;63025;55.472;38.432;2023-05-07T04:57:25;3.95;;;2.22;;
74551;SDS011;63025;55.472;38.432;2023-05-07T04:59:52;4.82;;;2.30;;
74551;SDS011;63025;55.472;38.432;2023-05-07T05:02:19;4.22;;;2.30;;
74551;SDS011;63025;55.472;38.432;2023-05-07T05:04:45;4.50;;;2.25;;
74551;SDS011;63025;55.472;38.432;2023-05-07T05:07:11;5.13;;;2.30;;
74551;SDS011;63025;55.472;38.432;2023-05-07T05:09:36;4.05;;;2.25;;
74551;SDS011;63025;55.472;38.432;2023-05-07T05:12:02;5.63;;;2.00;;
74551;SDS011;63025;55.472;38.432;2023-05-07T05:14:29;8.25;;;3.75;;
74551;SDS011;63025;55.472;38.432;2023-05-07T05:16:55;3.50;;;2.13;;
74551;SDS011;63025;55.472;38.432;2023-05-07T05:19:21;3.67;;;1.75;;
74551;SDS011;63025;55.472;38.432;2023-05-07T05:21:47;6.20;;;2.15;;
74551;SDS011;63025;55.472;38.432;2023-05-07T05:24:13;3.25;;;1.42;;
74551;SDS011;63025;55.472;38.432;2023-05-07T05:26:39;3.38;;;1.80;;
74551;SDS011;63025;55.472;38.432;2023-05-07T05:29:05;3.65;;;1.80;;
74551;SDS011;63025;55.472;38.432;2023-05-07T05:31:31;4.80;;;2.17;;
74551;SDS011;63025;55.472;38.432;2023-05-07T05:33:57;3.00;;;1.55;;
74551;SDS011;63025;55.472;38.432;2023-05-07T05:36:24;3.17;;;1.60;;
74551;SDS011;63025;55.472;38.432;2023-05-07T05:38:53;2.92;;;1.42;;
74551;SDS011;63025;55.472;38.432;2023-05-07T05:41:21;13.52;;;9.82;;
74551;SDS011;63025;55.472;38.432;2023-05-07T05:43:48;4.78;;;1.63;;
74551;SDS011;63025;55.472;38.432;2023-05-07T05:46:14;3.35;;;1.70;;
74551;SDS011;63025;55.472;38.432;2023-05-07T05:48:40;2.88;;;1.67;;
74551;SDS011;63025;55.472;38.432;2023-05-07T05:51:06;4.38;;;2.25;;
74551;SDS011;63025;55.472;38.432;2023-05-07T05:53:33;4.40;;;1.65;;
74551;SDS011;63025;55.472;38.432;2023-05-07T05:55:59;2.72;;;1.30;;
74551;SDS011;63025;55.472;38.432;2023-05-07T05:58:25;2.90;;;1.50;;
74551;SDS011;63025;55.472;38.432;2023-05-07T06:00:56;4.50;;;1.73;;
74551;SDS011;63025;55.472;38.432;2023-05-07T06:03:25;3.08;;;1.30;;
74551;SDS011;63025;55.472;38.432;2023-05-07T06:05:52;2.67;;;1.30;;
74551;SDS011;63025;55.472;38.432;2023-05-07T06:08:19;4.45;;;1.90;;
74551;SDS011;63025;55.472;38.432;2023-05-07T06:10:45;2.75;;;1.50;;
74551;SDS011;63025;55.472;38.432;2023-05-07T06:13:12;2.70;;;1.30;;
74551;SDS011;63025;55.472;38.432;2023-05-07T06:15:38;2.50;;;1.40;;
74551;SDS011;63025;55.472;38.432;2023-05-07T06:18:08;3.53;;;1.50;;
74551;SDS011;63025;55.472;38.432;2023-05-07T06:20:34;3.42;;;1.40;;
74551;SDS011;63025;55.472;38.432;2023-05-07T06:23:03;3.38;;;1.50;;
74551;SDS011;63025;55.472;38.432;2023-05-07T06:25:31;10.00;;;4.25;;
74551;SDS011;63025;55.472;38.432;2023-05-07T06:27:57;4.25;;;1.60;;
74551;SDS011;63025;55.472;38.432;2023-05-07T06:30:24;3.63;;;1.63;;
74551;SDS011;63025;55.472;38.432;2023-05-07T06:32:50;4.82;;;3.55;;
74551;SDS011;63025;55.472;38.432;2023-05-07T06:35:17;4.25;;;1.50;;
74551;SDS011;63025;55.472;38.432;2023-05-07T06:37:43;2.90;;;1.60;;
74551;SDS011;63025;55.472;38.432;2023-05-07T06:40:14;6.03;;;1.65;;
74551;SDS011;63025;55.472;38.432;2023-05-07T06:42:41;2.67;;;1.60;;
74551;SDS011;63025;55.472;38.432;2023-05-07T06:45:23;5.40;;;1.92;;
74551;SDS011;63025;55.472;38.432;2023-05-07T06:47:52;5.78;;;1.60;;
74551;SDS011;63025;55.472;38.432;2023-05-07T06:50:18;7.15;;;1.77;;
74551;SDS011;63025;55.472;38.432;2023-05-07T06:52:45;4.40;;;1.63;;
74551;SDS011;63025;55.472;38.432;2023-05-07T06:55:11;3.08;;;1.52;;
74551;SDS011;63025;55.472;38.432;2023-05-07T06:57:37;2.80;;;1.52;;
74551;SDS011;63025;55.472;38.432;2023-05-07T07:00:04;3.92;;;2.00;;
74551;SDS011;63025;55.472;38.432;2023-05-07T07:02:39;3.05;;;1.70;;
74551;SDS011;63025;55.472;38.432;2023-05-07T07:05:05;3.90;;;1.70;;
74551;SDS011;63025;55.472;38.432;2023-05-07T07:07:31;3.05;;;1.60;;
74551;SDS011;63025;55.472;38.432;2023-05-07T07:09:57;3.03;;;1.50;;
74551;SDS011;63025;55.472;38.432;2023-05-07T07:12:23;3.92;;;1.77;;
74551;SDS011;63025;55.472;38.432;2023-05-07T07:14:50;3.53;;;1.60;;
74551;SDS011;63025;55.472;38.432;2023-05-07T07:17:16;2.92;;;1.50;;
74551;SDS011;63025;55.472;38.432;2023-05-07T07:19:42;3.63;;;1.70;;
74551;SDS011;63025;55.472;38.432;2023-05-07T07:22:08;4.10;;;1.88;;
74551;SDS011;63025;55.472;38.432;2023-05-07T07:24:35;3.90;;;1.92;;
74551;SDS011;63025;55.472;38.432;2023-05-07T07:27:04;3.58;;;1.77;;
74551;SDS011;63025;55.472;38.432;2023-05-07T07:29:32;4.35;;;1.52;;
74551;SDS011;63025;55.472;38.432;2023-05-07T07:31:58;2.90;;;1.45;;
74551;SDS011;63025;55.472;38.432;2023-05-07T07:34:24;4.78;;;2.33;;
74551;SDS011;63025;55.472;38.432;2023-05-07T07:36:50;4.03;;;1.85;;
74551;SDS011;63025;55.472;38.432;2023-05-07T07:39:18;4.18;;;1.48;;
74551;SDS011;63025;55.472;38.432;2023-05-07T07:41:45;5.47;;;1.90;;
74551;SDS011;63025;55.472;38.432;2023-05-07T07:44:12;3.45;;;2.17;;
74551;SDS011;63025;55.472;38.432;2023-05-07T07:46:40;5.30;;;2.10;;
74551;SDS011;63025;55.472;38.432;2023-05-07T07:49:06;7.55;;;2.80;;
74551;SDS011;63025;55.472;38.432;2023-05-07T07:51:33;2.80;;;1.52;;
74551;SDS011;63025;55.472;38.432;2023-05-07T07:54:00;3.97;;;1.67;;
74551;SDS011;63025;55.472;38.432;2023-05-07T07:56:28;3.47;;;1.60;;
74551;SDS011;63025;55.472;38.432;2023-05-07T07:58:54;3.45;;;1.80;;
74551;SDS011;63025;55.472;38.432;2023-05-07T08:01:20;2.90;;;1.60;;
74551;SDS011;63025;55.472;38.432;2023-05-07T08:03:46;4.07;;;1.73;;
74551;SDS011;63025;55.472;38.432;2023-05-07T08:06:13;3.90;;;1.80;;
74551;SDS011;63025;55.472;38.432;2023-05-07T08:08:39;6.28;;;2.00;;
74551;SDS011;63025;55.472;38.432;2023-05-07T08:11:05;4.18;;;2.00;;
74551;SDS011;63025;55.472;38.432;2023-05-07T08:13:34;4.03;;;1.60;;
74551;SDS011;63025;55.472;38.432;2023-05-07T08:16:00;3.97;;;1.77;;
74551;SDS011;63025;55.472;38.432;2023-05-07T08:18:26;3.53;;;1.73;;
74551;SDS011;63025;55.472;38.432;2023-05-07T08:20:55;2.60;;;1.50;;
74551;SDS011;63025;55.472;38.432;2023-05-07T08:23:24;3.72;;;1.70;;
74551;SDS011;63025;55.472;38.432;2023-05-07T08:25:50;3.92;;;1.55;;
74551;SDS011;63025;55.472;38.432;2023-05-07T08:28:18;2.53;;;1.50;;
74551;SDS011;63025;55.472;38.432;2023-05-07T08:30:45;4.30;;;1.70;;
74551;SDS011;63025;55.472;38.432;2023-05-07T08:33:12;3.88;;;1.40;;
74551;SDS011;63025;55.472;38.432;2023-05-07T08:35:38;2.80;;;1.60;;
74551;SDS011;63025;55.472;38.432;2023-05-07T08:38:05;4.28;;;1.65;;
74551;SDS011;63025;55.472;38.432;2023-05-07T08:40:32;5.28;;;1.65;;
74551;SDS011;63025;55.472;38.432;2023-05-07T08:43:07;7.65;;;1.80;;
74551;SDS011;63025;55.472;38.432;2023-05-07T08:45:36;4.22;;;2.03;;
74551;SDS011;63025;55.472;38.432;2023-05-07T08:48:14;3.38;;;1.80;;
74551;SDS011;63025;55.472;38.432;2023-05-07T08:50:43;3.95;;;1.85;;
74551;SDS011;63025;55.472;38.432;2023-05-07T08:53:10;4.32;;;2.20;;
74551;SDS011;63025;55.472;38.432;2023-05-07T08:55:37;5.13;;;2.03;;
74551;SDS011;63025;55.472;38.432;2023-05-07T08:58:03;3.83;;;1.40;;
74551;SDS011;63025;55.472;38.432;2023-05-07T09:00:30;3.92;;;1.60;;
74551;SDS011;63025;55.472;38.432;2023-05-07T09:02:59;3.95;;;1.50;;
74551;SDS011;63025;55.472;38.432;2023-05-07T09:05:26;3.85;;;1.45;;
74551;SDS011;63025;55.472;38.432;2023-05-07T09:07:52;3.60;;;1.92;;
74551;SDS011;63025;55.472;38.432;2023-05-07T09:10:20;3.17;;;1.50;;
74551;SDS011;63025;55.472;38.432;2023-05-07T09:12:47;4.70;;;1.52;;
74551;SDS011;63025;55.472;38.432;2023-05-07T09:15:14;4.32;;;1.58;;
74551;SDS011;63025;55.472;38.432;2023-05-07T09:17:42;4.13;;;1.73;;
74551;SDS011;63025;55.472;38.432;2023-05-07T09:20:09;4.47;;;1.58;;
74551;SDS011;63025;55.472;38.432;2023-05-07T09:22:36;2.80;;;1.60;;
74551;SDS011;63025;55.472;38.432;2023-05-07T09:25:06;4.05;;;1.70;;
74551;SDS011;63025;55.472;38.432;2023-05-07T09:27:33;3.03;;;1.55;;
74551;SDS011;63025;55.472;38.432;2023-05-07T09:29:59;3.42;;;1.60;;
74551;SDS011;63025;55.472;38.432;2023-05-07T09:32:32;3.15;;;1.90;;
74551;SDS011;63025;55.472;38.432;2023-05-07T09:35:00;4.18;;;1.88;;
74551;SDS011;63025;55.472;38.432;2023-05-07T09:37:30;3.65;;;1.50;;
74551;SDS011;63025;55.472;38.432;2023-05-07T09:39:58;4.90;;;2.03;;
74551;SDS011;63025;55.472;38.432;2023-05-07T09:42:26;5.78;;;2.08;;
74551;SDS011;63025;55.472;38.432;2023-05-07T09:44:55;6.18;;;2.45;;
74551;SDS011;63025;55.472;38.432;2023-05-07T09:47:24;3.80;;;2.10;;
74551;SDS011;63025;55.472;38.432;2023-05-07T09:49:56;4.30;;;1.80;;
74551;SDS011;63025;55.472;38.432;2023-05-07T09:52:26;3.20;;;1.80;;
74551;SDS011;63025;55.472;38.432;2023-05-07T09:54:59;4.72;;;3.30;;
74551;SDS011;63025;55.472;38.432;2023-05-07T09:57:30;3.45;;;2.10;;
74551;SDS011;63025;55.472;38.432;2023-05-07T10:00:02;2.55;;;1.40;;
74551;SDS011;63025;55.472;38.432;2023-05-07T10:02:45;4.25;;;1.83;;
74551;SDS011;63025;55.472;38.432;2023-05-07T10:05:16;3.65;;;1.42;;
74551;SDS011;63025;55.472;38.432;2023-05-07T10:07:42;4.18;;;1.50;;
74551;SDS011;63025;55.472;38.432;2023-05-07T10:10:10;4.60;;;1.50;;
74551;SDS011;63025;55.472;38.432;2023-05-07T10:12:41;4.10;;;1.60;;
74551;SDS011;63025;55.472;38.432;2023-05-07T10:15:13;3.97;;;1.80;;
74551;SDS011;63025;55.472;38.432;2023-05-07T10:17:43;4.18;;;2.00;;
74551;SDS011;63025;55.472;38.432;2023-05-07T10:20:11;3.92;;;2.28;;
74551;SDS011;63025;55.472;38.432;2023-05-07T10:22:44;2.40;;;1.50;;
74551;SDS011;63025;55.472;38.432;2023-05-07T10:25:26;3.15;;;1.23;;
74551;SDS011;63025;55.472;38.432;2023-05-07T10:27:59;3.13;;;1.33;;
74551;SDS011;63025;55.472;38.432;2023-05-07T10:30:43;3.58;;;1.50;;
74551;SDS011;63025;55.472;38.432;2023-05-07T10:33:25;2.70;;;1.43;;
74551;SDS011;63025;55.472;38.432;2023-05-07T10:35:55;4.25;;;1.80;;
74551;SDS011;63025;55.472;38.432;2023-05-07T10:38:26;4.13;;;2.28;;
74551;SDS011;63025;55.472;38.432;2023-05-07T10:40:53;5.20;;;2.92;;
74551;SDS011;63025;55.472;38.432;2023-05-07T10:43:20;6.85;;;3.75;;
74551;SDS011;63025;55.472;38.432;2023-05-07T10:51:29;4.53;;;1.88;;
74551;SDS011;63025;55.472;38.432;2023-05-07T10:56:44;4.20;;;2.15;;
74551;SDS011;63025;55.472;38.432;2023-05-07T11:01:56;4.22;;;1.60;;
74551;SDS011;63025;55.472;38.432;2023-05-07T11:05:20;3.00;;;1.73;;
74551;SDS011;63025;55.472;38.432;2023-05-07T11:08:24;3.83;;;2.00;;
74551;SDS011;63025;55.472;38.432;2023-05-07T11:10:57;8.23;;;5.07;;
74551;SDS011;63025;55.472;38.432;2023-05-07T11:13:52;4.32;;;1.48;;
74551;SDS011;63025;55.472;38.432;2023-05-07T11:16:28;3.65;;;1.50;;
74551;SDS011;63025;55.472;38.432;2023-05-07T11:19:47;22.67;;;13.68;;
74551;SDS011;63025;55.472;38.432;2023-05-07T11:22:35;4.57;;;2.47;;
74551;SDS011;63025;55.472;38.432;2023-05-07T11:25:17;3.63;;;1.85;;
74551;SDS011;63025;55.472;38.432;2023-05-07T11:27:52;5.18;;;1.77;;
74551;SDS011;63025;55.472;38.432;2023-05-07T11:30:18;4.57;;;2.05;;
74551;SDS011;63025;55.472;38.432;2023-05-07T11:32:47;3.80;;;1.80;;
74551;SDS011;63025;55.472;38.432;2023-05-07T11:35:15;3.72;;;1.50;;
74551;SDS011;63025;55.472;38.432;2023-05-07T11:37:43;21.52;;;11.82;;
74551;SDS011;63025;55.472;38.432;2023-05-07T11:40:12;4.18;;;1.95;;
74551;SDS011;63025;55.472;38.432;2023-05-07T11:42:39;3.33;;;1.88;;
74551;SDS011;63025;55.472;38.432;2023-05-07T11:45:07;3.15;;;1.88;;
74551;SDS011;63025;55.472;38.432;2023-05-07T11:47:34;3.40;;;2.03;;
74551;SDS011;63025;55.472;38.432;2023-05-07T11:50:05;2.65;;;1.42;;
74551;SDS011;63025;55.472;38.432;2023-05-07T11:55:00;3.80;;;1.63;;
74551;SDS011;63025;55.472;38.432;2023-05-07T11:57:32;4.75;;;2.40;;
74551;SDS011;63025;55.472;38.432;2023-05-07T11:59:59;4.18;;;2.03;;
74551;SDS011;63025;55.472;38.432;2023-05-07T12:02:33;4.15;;;2.13;;
74551;SDS011;63025;55.472;38.432;2023-05-07T12:05:00;5.43;;;3.88;;
74551;SDS011;63025;55.472;38.432;2023-05-07T12:07:32;13.65;;;10.00;;
74551;SDS011;63025;55.472;38.432;2023-05-07T12:10:03;17.25;;;11.48;;
74551;SDS011;63025;55.472;38.432;2023-05-07T12:12:38;3.53;;;1.80;;
74551;SDS011;63025;55.472;38.432;2023-05-07T12:15:05;2.95;;;2.00;;
74551;SDS011;63025;55.472;38.432;2023-05-07T12:17:31;5.57;;;3.13;;
74551;SDS011;63025;55.472;38.432;2023-05-07T12:19:57;9.82;;;7.07;;
74551;SDS011;63025;55.472;38.432;2023-05-07T12:22:23;3.90;;;2.40;;
74551;SDS011;63025;55.472;38.432;2023-05-07T12:24:49;3.72;;;1.90;;
74551;SDS011;63025;55.472;38.432;2023-05-07T12:29:48;2.90;;;1.90;;
74551;SDS011;63025;55.472;38.432;2023-05-07T12:32:21;3.45;;;1.65;;
74551;SDS011;63025;55.472;38.432;2023-05-07T12:34:50;3.83;;;1.92;;
74551;SDS011;63025;55.472;38.432;2023-05-07T12:37:22;3.08;;;1.63;;
74551;SDS011;63025;55.472;38.432;2023-05-07T12:39:50;4.90;;;2.10;;
74551;SDS011;63025;55.472;38.432;2023-05-07T12:42:38;4.35;;;2.30;;
74551;SDS011;63025;55.472;38.432;2023-05-07T12:45:09;4.68;;;1.80;;
74551;SDS011;63025;55.472;38.432;2023-05-07T12:47:39;3.65;;;2.17;;
74551;SDS011;63025;55.472;38.432;2023-05-07T12:50:05;5.07;;;1.75;;
74551;SDS011;63025;55.472;38.432;2023-05-07T12:52:32;3.60;;;1.75;;
74551;SDS011;63025;55.472;38.432;2023-05-07T12:55:04;4.95;;;2.25;;
74551;SDS011;63025;55.472;38.432;2023-05-07T12:57:37;4.72;;;2.65;;
74551;SDS011;63025;55.472;38.432;2023-05-07T13:00:05;11.93;;;7.20;;
74551;SDS011;63025;55.472;38.432;2023-05-07T13:02:41;3.88;;;2.33;;
74551;SDS011;63025;55.472;38.432;2023-05-07T13:05:11;2.97;;;1.70;;
74551;SDS011;63025;55.472;38.432;2023-05-07T13:07:37;3.00;;;1.80;;
74551;SDS011;63025;55.472;38.432;2023-05-07T13:10:03;3.92;;;2.58;;
74551;SDS011;63025;55.472;38.432;2023-05-07T13:12:31;4.53;;;2.58;;
74551;SDS011;63025;55.472;38.432;2023-05-07T13:14:57;6.53;;;3.15;;
74551;SDS011;63025;55.472;38.432;2023-05-07T13:17:22;5.57;;;2.80;;
74551;SDS011;63025;55.472;38.432;2023-05-07T13:19:48;4.32;;;2.60;;
74551;SDS011;63025;55.472;38.432;2023-05-07T13:22:14;5.43;;;3.20;;
74551;SDS011;63025;55.472;38.432;2023-05-07T13:24:40;6.57;;;3.33;;
74551;SDS011;63025;55.472;38.432;2023-05-07T13:27:08;5.90;;;3.50;;
74551;SDS011;63025;55.472;38.432;2023-05-07T13:29:33;6.35;;;2.55;;
74551;SDS011;63025;55.472;38.432;2023-05-07T13:31:59;4.28;;;2.40;;
74551;SDS011;63025;55.472;38.432;2023-05-07T13:34:25;4.35;;;2.42;;
74551;SDS011;63025;55.472;38.432;2023-05-07T13:36:51;5.25;;;2.85;;
74551;SDS011;63025;55.472;38.432;2023-05-07T13:39:17;5.70;;;2.17;;
74551;SDS011;63025;55.472;38.432;2023-05-07T13:41:43;3.65;;;2.47;;
74551;SDS011;63025;55.472;38.432;2023-05-07T13:44:09;3.47;;;1.80;;
74551;SDS011;63025;55.472;38.432;2023-05-07T13:46:35;2.75;;;1.65;;
74551;SDS011;63025;55.472;38.432;2023-05-07T13:49:01;3.47;;;1.70;;
74551;SDS011;63025;55.472;38.432;2023-05-07T13:51:27;3.85;;;2.00;;
74551;SDS011;63025;55.472;38.432;2023-05-07T13:53:52;3.17;;;2.03;;
74551;SDS011;63025;55.472;38.432;2023-05-07T13:56:19;6.45;;;2.45;;
74551;SDS011;63025;55.472;38.432;2023-05-07T13:58:46;6.03;;;3.70;;
74551;SDS011;63025;55.472;38.432;2023-05-07T14:01:12;3.35;;;1.90;;
74551;SDS011;63025;55.472;38.432;2023-05-07T14:03:38;5.22;;;3.00;;
74551;SDS011;63025;55.472;38.432;2023-05-07T14:06:05;6.15;;;2.85;;
74551;SDS011;63025;55.472;38.432;2023-05-07T14:08:31;6.80;;;2.30;;
74551;SDS011;63025;55.472;38.432;2023-05-07T14:10:57;5.32;;;1.95;;
74551;SDS011;63025;55.472;38.432;2023-05-07T14:13:22;6.85;;;3.22;;
74551;SDS011;63025;55.472;38.432;2023-05-07T14:15:48;8.48;;;3.10;;
74551;SDS011;63025;55.472;38.432;2023-05-07T14:18:14;6.85;;;3.42;;
74551;SDS011;63025;55.472;38.432;2023-05-07T14:20:41;5.07;;;2.55;;
74551;SDS011;63025;55.472;38.432;2023-05-07T14:23:08;4.43;;;2.03;;
74551;SDS011;63025;55.472;38.432;2023-05-07T14:25:34;3.92;;;2.70;;
74551;SDS011;63025;55.472;38.432;2023-05-07T14:28:00;6.25;;;3.10;;
74551;SDS011;63025;55.472;38.432;2023-05-07T14:30:26;4.55;;;2.22;;
74551;SDS011;63025;55.472;38.432;2023-05-07T14:32:52;5.78;;;2.13;;
74551;SDS011;63025;55.472;38.432;2023-05-07T14:35:17;5.78;;;2.20;;
74551;SDS011;63025;55.472;38.432;2023-05-07T14:37:43;4.45;;;2.50;;
74551;SDS011;63025;55.472;38.432;2023-05-07T14:40:09;4.93;;;2.35;;
74551;SDS011;63025;55.472;38.432;2023-05-07T14:42:35;4.32;;;2.60;;
74551;SDS011;63025;55.472;38.432;2023-05-07T14:45:01;7.03;;;3.42;;
74551;SDS011;63025;55.472;38.432;2023-05-07T14:47:31;7.97;;;4.10;;
74551;SDS011;63025;55.472;38.432;2023-05-07T14:49:57;5.90;;;3.90;;
74551;SDS011;63025;55.472;38.432;2023-05-07T14:52:23;8.85;;;4.07;;
74551;SDS011;63025;55.472;38.432;2023-05-07T14:54:49;9.43;;;4.85;;